Time;durP1;ratioP1;P1;durP2;ratioP2;P2;SDS_P1;SDS_P2;PMS_P1;PMS_P2;Temp;Humidity;BMP_temperature;BMP_pressure;BME280_temperature;BME280_humidity;BME280_pressure;Samples;Min_cycle;Max_cycle;Signal;HPM_P1;HPM_P2
2022/11/10 00:00:31;;;;;;;3.70;1.15;;;11.50;99.90;;;;;;5058970;28;20021;-80
2022/11/10 00:03:05;;;;;;;3.80;1.20;;;11.60;99.90;;;;;;5042370;28;20167;-80
2022/11/10 00:05:31;;;;;;;2.47;1.30;;;11.50;99.90;;;;;;5047809;28;20028;-78
2022/11/10 00:08:01;;;;;;;4.72;1.00;;;11.50;99.90;;;;;;5046382;28;20161;-80
2022/11/10 00:10:26;;;;;;;2.70;1.17;;;11.50;99.90;;;;;;5045477;28;20036;-79
2022/11/10 00:12:52;;;;;;;2.97;0.77;;;11.50;99.90;;;;;;5044807;28;20388;-79
2022/11/10 00:18:02;;;;;;;;;;;11.40;99.90;;;;;;5043720;28;20520;-79
2022/11/10 00:20:28;;;;;;;6.57;1.15;;;11.40;99.90;;;;;;5041766;28;19946;-78
2022/11/10 00:22:55;;;;;;;2.38;1.00;;;11.40;99.90;;;;;;5045028;28;20025;-79
2022/11/10 00:25:21;;;;;;;3.58;0.70;;;11.30;99.90;;;;;;5044613;28;20028;-79
2022/11/10 00:27:48;;;;;;;2.63;0.80;;;11.40;99.90;;;;;;5043628;28;20017;-79
2022/11/10 00:30:14;;;;;;;6.25;1.40;;;11.30;99.90;;;;;;5041472;28;20421;-79
2022/11/10 00:32:39;;;;;;;4.10;1.05;;;11.30;99.90;;;;;;5042396;28;20071;-79
2022/11/10 00:35:06;;;;;;;3.05;1.05;;;11.30;99.90;;;;;;5040304;28;20112;-78
2022/11/10 00:37:32;;;;;;;1.50;0.60;;;11.30;99.90;;;;;;5046188;28;20040;-79
2022/11/10 00:39:57;;;;;;;3.47;0.70;;;11.30;99.90;;;;;;5042664;28;20042;-79
2022/11/10 00:42:23;;;;;;;5.50;1.10;;;11.30;99.90;;;;;;5044355;28;20489;-78
2022/11/10 00:44:49;;;;;;;3.13;1.05;;;11.30;99.90;;;;;;5041957;28;20029;-79
2022/11/10 00:47:14;;;;;;;4.20;0.90;;;11.20;99.90;;;;;;5044623;28;20388;-78
2022/11/10 00:49:40;;;;;;;6.82;0.98;;;11.20;99.90;;;;;;5044173;28;20473;-78
2022/11/10 00:52:05;;;;;;;1.98;0.85;;;11.20;99.90;;;;;;5044265;28;20037;-79
2022/11/10 00:54:31;;;;;;;3.08;1.20;;;11.20;99.90;;;;;;5044227;28;20025;-79
2022/11/10 00:56:57;;;;;;;7.25;1.10;;;11.10;99.90;;;;;;5044665;28;20738;-78
2022/11/10 00:59:22;;;;;;;2.45;1.23;;;11.10;99.90;;;;;;5046082;28;20424;-78
2022/11/10 01:01:48;;;;;;;4.07;1.08;;;11.10;99.90;;;;;;5057125;22;20029;-78
2022/11/10 01:04:14;;;;;;;2.60;0.90;;;11.10;99.90;;;;;;5044080;28;20110;-78
2022/11/10 01:06:39;;;;;;;2.85;0.88;;;11.10;99.90;;;;;;5041536;28;20024;-77
2022/11/10 01:09:05;;;;;;;3.83;0.80;;;11.10;99.90;;;;;;5043222;28;20087;-79
2022/11/10 01:11:30;;;;;;;2.97;1.00;;;11.00;99.90;;;;;;5046788;28;20029;-79
2022/11/10 01:13:56;;;;;;;5.55;1.02;;;11.00;99.90;;;;;;5042041;28;20504;-79
2022/11/10 01:16:27;;;;;;;5.90;1.45;;;11.00;99.90;;;;;;5036503;28;20033;-78
2022/11/10 01:18:56;;;;;;;3.58;1.00;;;11.00;99.90;;;;;;5036925;28;20048;-78
2022/11/10 01:21:23;;;;;;;2.00;0.90;;;11.00;99.90;;;;;;5037533;28;20025;-78
2022/11/10 01:23:49;;;;;;;3.28;1.33;;;11.00;99.90;;;;;;5040659;28;20493;-77
2022/11/10 01:26:15;;;;;;;4.13;1.40;;;11.00;99.90;;;;;;5041792;28;20021;-78
2022/11/10 01:28:41;;;;;;;3.97;0.93;;;11.00;99.90;;;;;;5039441;28;20218;-78
2022/11/10 01:31:13;;;;;;;4.88;1.10;;;10.90;99.90;;;;;;5042705;28;20112;-78
2022/11/10 01:33:39;;;;;;;5.05;1.00;;;10.90;99.90;;;;;;5035079;28;20021;-79
2022/11/10 01:36:05;;;;;;;4.03;1.25;;;10.80;99.90;;;;;;5034881;28;20555;-78
2022/11/10 01:38:34;;;;;;;3.47;1.17;;;10.80;99.90;;;;;;5040796;28;20053;-78
2022/11/10 01:41:02;;;;;;;3.53;0.90;;;10.80;99.90;;;;;;5039778;28;20059;-77
2022/11/10 01:43:28;;;;;;;3.03;1.45;;;10.70;99.90;;;;;;5038150;28;20488;-77
2022/11/10 01:45:58;;;;;;;5.03;1.48;;;10.70;99.90;;;;;;5040580;28;20140;-77
2022/11/10 01:48:39;;;;;;;2.88;1.27;;;10.70;99.90;;;;;;5038767;28;20032;-78
2022/11/10 01:51:27;;;;;;;2.85;1.90;;;10.70;99.90;;;;;;5037643;28;20079;-77
2022/11/10 01:53:57;;;;;;;4.90;1.38;;;10.60;99.90;;;;;;5035700;28;20128;-77
2022/11/10 01:56:25;;;;;;;5.32;1.40;;;10.60;99.90;;;;;;5037003;28;20396;-78
2022/11/10 01:58:57;;;;;;;5.15;2.60;;;10.60;99.90;;;;;;5037597;28;20115;-77
2022/11/10 02:01:23;;;;;;;7.97;2.20;;;10.60;99.90;;;;;;5038833;28;20037;-78
2022/11/10 02:03:52;;;;;;;3.63;1.40;;;10.60;99.90;;;;;;5038675;28;20036;-78
2022/11/10 02:06:21;;;;;;;4.07;1.70;;;10.60;99.90;;;;;;5037968;28;20049;-78
2022/11/10 02:08:48;;;;;;;5.38;1.30;;;10.60;99.90;;;;;;5037301;28;20021;-78
2022/11/10 02:11:14;;;;;;;5.07;1.40;;;10.60;99.90;;;;;;5041765;28;20094;-78
2022/11/10 02:13:40;;;;;;;4.05;1.60;;;10.60;99.90;;;;;;5041428;28;20388;-79
2022/11/10 02:16:06;;;;;;;4.68;1.67;;;10.60;99.90;;;;;;5036184;28;20563;-78
2022/11/10 02:18:32;;;;;;;4.00;1.60;;;10.50;99.90;;;;;;5043360;28;20040;-78
2022/11/10 02:20:57;;;;;;;6.60;1.80;;;10.50;99.90;;;;;;5041983;28;20029;-78
2022/11/10 02:23:29;;;;;;;6.03;1.90;;;10.50;99.90;;;;;;5038235;28;20507;-78
2022/11/10 02:25:55;;;;;;;4.57;2.47;;;10.60;99.90;;;;;;5038330;28;20390;-78
2022/11/10 02:28:21;;;;;;;4.55;2.17;;;10.60;99.90;;;;;;5042220;28;20056;-78
2022/11/10 02:30:47;;;;;;;8.40;2.40;;;10.60;99.90;;;;;;5039512;28;20061;-78
2022/11/10 02:33:13;;;;;;;5.30;1.90;;;10.60;99.90;;;;;;5041929;28;20392;-78
2022/11/10 02:35:38;;;;;;;3.17;1.75;;;10.60;99.90;;;;;;5043287;28;20029;-79
2022/11/10 02:38:04;;;;;;;4.78;1.80;;;10.60;99.90;;;;;;5045245;28;20472;-78
2022/11/10 02:40:29;;;;;;;3.55;1.45;;;10.60;99.90;;;;;;5042816;28;20072;-78
2022/11/10 02:42:55;;;;;;;3.88;1.50;;;10.60;99.90;;;;;;5034369;28;20029;-78
2022/11/10 02:45:21;;;;;;;4.78;1.60;;;10.60;99.90;;;;;;5039568;28;20025;-79
2022/11/10 02:47:46;;;;;;;6.53;1.80;;;10.60;99.90;;;;;;5041849;28;20021;-78
2022/11/10 02:50:12;;;;;;;3.03;1.73;;;10.60;99.90;;;;;;5041537;28;20406;-78
2022/11/10 02:52:37;;;;;;;4.28;2.08;;;10.60;99.90;;;;;;5044881;28;20033;-78
2022/11/10 02:55:03;;;;;;;4.63;1.90;;;10.60;99.90;;;;;;5043579;28;20037;-79
2022/11/10 02:57:29;;;;;;;5.97;2.22;;;10.60;99.90;;;;;;5041113;28;20049;-78
2022/11/10 02:59:54;;;;;;;3.80;1.70;;;10.50;99.90;;;;;;5040112;28;20021;-77
2022/11/10 03:02:20;;;;;;;4.22;1.92;;;10.50;99.90;;;;;;5031655;28;20037;-78
2022/11/10 03:04:46;;;;;;;3.15;1.70;;;10.50;99.90;;;;;;5040662;28;20032;-78
2022/11/10 03:07:11;;;;;;;6.15;2.20;;;10.50;99.90;;;;;;5041609;28;20028;-78
2022/11/10 03:09:37;;;;;;;5.35;2.20;;;10.50;99.90;;;;;;5039284;28;20167;-78
2022/11/10 03:12:02;;;;;;;6.32;1.95;;;10.40;99.90;;;;;;5037425;28;20048;-78
2022/11/10 03:14:28;;;;;;;5.30;2.20;;;10.40;99.90;;;;;;5037747;28;21010;-78
2022/11/10 03:16:54;;;;;;;7.40;2.00;;;10.40;99.90;;;;;;5041222;28;20071;-78
2022/11/10 03:19:19;;;;;;;4.72;1.85;;;10.40;99.90;;;;;;5041831;28;20488;-78
2022/11/10 03:21:45;;;;;;;7.97;2.65;;;10.40;99.90;;;;;;5038583;28;20030;-78
2022/11/10 03:24:10;;;;;;;4.78;1.95;;;10.40;99.90;;;;;;5039231;28;20100;-77
2022/11/10 03:26:36;;;;;;;4.70;1.98;;;10.40;99.90;;;;;;5038235;28;20034;-77
2022/11/10 03:29:02;;;;;;;5.25;1.83;;;10.30;99.90;;;;;;5037124;28;20038;-78
2022/11/10 03:31:27;;;;;;;2.85;1.65;;;10.30;99.90;;;;;;5045628;28;20045;-78
2022/11/10 03:33:53;;;;;;;8.82;1.90;;;10.30;99.90;;;;;;5040585;28;20032;-77
2022/11/10 03:36:19;;;;;;;5.45;1.70;;;10.30;99.90;;;;;;5038948;28;20116;-78
2022/11/10 03:38:44;;;;;;;15.52;2.00;;;10.30;99.90;;;;;;5042745;28;20032;-78
2022/11/10 03:41:10;;;;;;;4.00;1.83;;;10.20;99.90;;;;;;5041836;28;20020;-77
2022/11/10 03:43:35;;;;;;;3.85;1.70;;;10.30;99.90;;;;;;5040006;28;20021;-77
2022/11/10 03:46:01;;;;;;;4.93;1.83;;;10.20;99.90;;;;;;5039076;28;20040;-78
2022/11/10 03:48:27;;;;;;;2.88;1.63;;;10.20;99.90;;;;;;5038112;28;20442;-77
2022/11/10 03:50:52;;;;;;;4.25;1.90;;;10.20;99.90;;;;;;5036775;28;20037;-78
2022/11/10 03:53:18;;;;;;;2.92;1.67;;;10.20;99.90;;;;;;5036899;28;20022;-77
2022/11/10 03:55:43;;;;;;;2.78;1.35;;;10.20;99.90;;;;;;5043598;28;20033;-78
2022/11/10 03:58:09;;;;;;;4.15;1.40;;;10.10;99.90;;;;;;5052945;28;20028;-78
2022/11/10 04:00:35;;;;;;;4.85;1.25;;;10.10;99.90;;;;;;5041987;28;20032;-77
2022/11/10 04:03:00;;;;;;;4.50;1.40;;;10.10;99.90;;;;;;5047367;28;20044;-78
2022/11/10 04:11:00;;;;;;;6.57;1.85;;;10.00;99.90;;;;;;5039342;28;20066;-78
2022/11/10 04:16:10;;;;;;;4.95;1.67;;;10.00;99.90;;;;;;5036970;28;20044;-79
2022/11/10 04:18:36;;;;;;;4.82;1.88;;;9.90;99.90;;;;;;5039434;28;20037;-77
2022/11/10 04:21:02;;;;;;;4.95;1.70;;;9.90;99.90;;;;;;5041870;28;20033;-77
2022/11/10 04:23:35;;;;;;;5.32;1.90;;;9.90;99.90;;;;;;5043039;28;20024;-77
2022/11/10 04:26:27;;;;;;;3.47;1.40;;;9.80;99.90;;;;;;5038233;28;20039;-78
2022/11/10 04:28:58;;;;;;;5.50;2.22;;;9.80;99.90;;;;;;5044572;28;20047;-77
2022/11/10 04:31:26;;;;;;;4.05;1.67;;;9.90;99.90;;;;;;5043934;28;20120;-77
2022/11/10 04:33:52;;;;;;;5.57;1.70;;;9.80;99.90;;;;;;5038762;28;20036;-78
2022/11/10 04:36:21;;;;;;;3.03;1.40;;;9.80;99.90;;;;;;5038251;28;20499;-78
2022/11/10 04:38:47;;;;;;;4.57;1.83;;;9.80;99.90;;;;;;5042678;28;20393;-77
2022/11/10 04:41:13;;;;;;;3.20;1.60;;;9.70;99.90;;;;;;5038636;28;20029;-78
2022/11/10 04:43:39;;;;;;;4.18;1.75;;;9.70;99.90;;;;;;5041753;28;20174;-79
2022/11/10 04:46:06;;;;;;;4.53;1.88;;;9.70;99.90;;;;;;5038861;28;20034;-77
2022/11/10 04:48:33;;;;;;;6.30;2.00;;;9.60;99.90;;;;;;5036762;28;20029;-77
2022/11/10 04:51:06;;;;;;;5.25;1.65;;;9.60;99.90;;;;;;5039941;28;20020;-77
2022/11/10 04:53:32;;;;;;;7.85;2.33;;;9.50;99.90;;;;;;5039202;28;20030;-76
2022/11/10 04:55:58;;;;;;;4.22;2.58;;;9.50;99.90;;;;;;5033774;28;20130;-77
2022/11/10 04:58:24;;;;;;;6.65;2.38;;;9.50;99.90;;;;;;5034645;28;20108;-77
2022/11/10 05:00:49;;;;;;;5.55;2.00;;;9.50;99.90;;;;;;5039247;28;20068;-77
2022/11/10 05:03:15;;;;;;;7.57;2.58;;;9.50;99.90;;;;;;5040815;28;20033;-77
2022/11/10 05:05:41;;;;;;;6.40;1.90;;;9.40;99.90;;;;;;5038531;28;20451;-77
2022/11/10 05:08:07;;;;;;;6.10;2.42;;;9.40;99.90;;;;;;5034222;28;20025;-77
2022/11/10 05:10:35;;;;;;;7.00;2.83;;;9.40;99.90;;;;;;5035566;28;20036;-77
2022/11/10 05:13:02;;;;;;;5.25;1.92;;;9.40;99.90;;;;;;5038070;28;20048;-77
2022/11/10 05:15:27;;;;;;;5.03;1.85;;;9.30;99.90;;;;;;5034866;28;20212;-77
2022/11/10 05:17:53;;;;;;;5.97;1.90;;;9.30;99.90;;;;;;5038673;28;20103;-79
2022/11/10 05:20:21;;;;;;;3.15;1.85;;;9.30;99.90;;;;;;5036656;28;20033;-78
2022/11/10 05:23:36;;;;;;;4.20;1.77;;;9.30;99.90;;;;;;5034837;28;20147;-77
2022/11/10 05:25:37;;;;;;;4.13;2.10;;;9.20;99.90;;;;;;5036233;28;20033;-77
2022/11/10 05:28:04;;;;;;;12.77;2.70;;;9.20;99.90;;;;;;5033171;28;20029;-77
2022/11/10 05:30:30;;;;;;;3.25;1.90;;;9.20;99.90;;;;;;5039070;28;20427;-78
2022/11/10 05:32:55;;;;;;;6.45;1.90;;;9.20;99.90;;;;;;5036367;28;20026;-77
2022/11/10 05:35:22;;;;;;;4.60;2.53;;;9.10;99.90;;;;;;5032819;28;20033;-79
2022/11/10 05:37:48;;;;;;;8.68;2.17;;;9.10;99.90;;;;;;5035337;28;20111;-76
2022/11/10 05:40:13;;;;;;;5.72;2.30;;;9.10;99.90;;;;;;5041617;28;20067;-78
2022/11/10 05:42:47;;;;;;;5.63;1.70;;;9.00;99.90;;;;;;5031521;28;20021;-78
2022/11/10 05:45:13;;;;;;;;;;;9.00;99.90;;;;;;5036835;28;20037;-78
2022/11/10 05:47:40;;;;;;;3.42;2.00;;;9.00;99.90;;;;;;5040473;28;19908;-78
2022/11/10 05:50:07;;;;;;;6.57;2.33;;;9.00;99.90;;;;;;5035455;28;20021;-78
2022/11/10 05:52:33;;;;;;;3.10;1.70;;;9.00;99.90;;;;;;5040857;28;20039;-78
2022/11/10 05:54:59;;;;;;;6.45;1.90;;;8.90;99.90;;;;;;5038929;28;20033;-78
2022/11/10 05:57:25;;;;;;;4.82;2.00;;;8.90;99.90;;;;;;5040258;28;20512;-78
2022/11/10 05:59:50;;;;;;;10.25;2.38;;;9.00;99.90;;;;;;5043207;28;20116;-78
2022/11/10 06:02:16;;;;;;;6.25;2.03;;;8.90;99.90;;;;;;5041912;28;20109;-78
2022/11/10 06:04:42;;;;;;;9.85;2.17;;;8.90;99.90;;;;;;5040338;28;20017;-78
2022/11/10 06:07:07;;;;;;;4.60;2.22;;;8.90;99.90;;;;;;5042411;28;20029;-77
2022/11/10 06:09:33;;;;;;;7.45;2.38;;;8.90;99.90;;;;;;5039216;28;20025;-77
2022/11/10 06:11:59;;;;;;;3.55;1.90;;;8.90;99.90;;;;;;5041657;28;20028;-77
2022/11/10 06:14:25;;;;;;;7.93;2.15;;;8.80;99.90;;;;;;5039127;28;20401;-77
2022/11/10 06:16:50;;;;;;;9.40;2.33;;;8.90;99.90;;;;;;5044530;28;20110;-77
2022/11/10 06:19:16;;;;;;;6.20;1.80;;;8.90;99.90;;;;;;5037063;28;20025;-77
2022/11/10 06:21:42;;;;;;;7.88;2.65;;;8.80;99.90;;;;;;5042694;28;20048;-77
2022/11/10 06:24:09;;;;;;;5.43;2.30;;;8.80;99.90;;;;;;5046117;28;20495;-75
2022/11/10 06:26:35;;;;;;;5.85;2.72;;;8.80;99.90;;;;;;5040882;28;20025;-75
2022/11/10 06:29:00;;;;;;;6.38;2.28;;;8.80;99.90;;;;;;5044205;28;20930;-75
2022/11/10 06:31:26;;;;;;;5.88;2.47;;;8.80;99.90;;;;;;5040379;28;20503;-76
2022/11/10 06:33:52;;;;;;;10.65;2.30;;;8.80;99.90;;;;;;5043239;28;20026;-78
2022/11/10 06:36:17;;;;;;;9.82;2.63;;;8.80;99.90;;;;;;5039797;28;20052;-77
2022/11/10 06:38:43;;;;;;;3.63;2.10;;;8.80;99.90;;;;;;5049193;28;20025;-77
2022/11/10 06:41:09;;;;;;;4.43;2.60;;;8.80;99.90;;;;;;5045202;28;20040;-77
2022/11/10 06:43:34;;;;;;;6.75;3.15;;;8.80;99.90;;;;;;5041141;28;20040;-77
2022/11/10 06:46:00;;;;;;;4.95;2.28;;;8.80;99.90;;;;;;5041106;28;20084;-76
2022/11/10 06:48:25;;;;;;;10.52;2.65;;;8.90;99.90;;;;;;5042538;28;20018;-77
2022/11/10 06:50:51;;;;;;;5.53;2.90;;;8.80;99.90;;;;;;5042779;28;20107;-76
2022/11/10 06:53:17;;;;;;;6.20;2.40;;;8.80;99.90;;;;;;5043838;28;20060;-77
2022/11/10 06:55:43;;;;;;;7.57;2.92;;;8.80;99.90;;;;;;5043930;28;20041;-77
2022/11/10 06:58:09;;;;;;;5.63;2.10;;;8.80;99.90;;;;;;5045400;28;20043;-77
2022/11/10 07:00:34;;;;;;;6.68;2.97;;;8.80;99.90;;;;;;5040540;28;20076;-78
2022/11/10 07:03:01;;;;;;;4.85;2.50;;;8.80;99.90;;;;;;5069953;23;20053;-82
2022/11/10 07:05:27;;;;;;;12.27;3.35;;;8.80;99.90;;;;;;5049819;28;20029;-79
2022/11/10 07:07:52;;;;;;;8.55;3.10;;;8.80;99.90;;;;;;5048241;28;20029;-80
2022/11/10 07:10:18;;;;;;;6.63;2.42;;;8.80;99.90;;;;;;5050846;28;20017;-81
2022/11/10 07:12:44;;;;;;;5.13;2.40;;;8.90;99.90;;;;;;5044929;28;20393;-79
2022/11/10 07:15:09;;;;;;;10.43;2.78;;;8.90;99.90;;;;;;5047144;28;20040;-79
2022/11/10 07:17:39;;;;;;;8.88;3.08;;;8.90;99.90;;;;;;5043676;28;20036;-80
2022/11/10 07:20:06;;;;;;;11.93;3.03;;;8.90;99.90;;;;;;5043437;28;20028;-79
2022/11/10 07:22:32;;;;;;;7.72;2.90;;;8.90;99.90;;;;;;5048736;28;20039;-80
2022/11/10 07:24:58;;;;;;;7.50;2.72;;;8.90;99.90;;;;;;5043147;28;20488;-80
2022/11/10 07:27:23;;;;;;;6.35;3.13;;;9.00;99.90;;;;;;5043116;28;20025;-80
2022/11/10 07:29:49;;;;;;;9.38;3.95;;;9.00;99.90;;;;;;5044424;28;20033;-79
2022/11/10 07:32:15;;;;;;;8.27;2.83;;;9.00;99.90;;;;;;5044119;28;20511;-80
2022/11/10 07:34:40;;;;;;;5.90;3.35;;;9.00;99.90;;;;;;5052919;28;20551;-79
2022/11/10 07:37:06;;;;;;;6.85;2.88;;;9.10;99.90;;;;;;5047396;28;20029;-80
2022/11/10 07:39:31;;;;;;;5.05;2.47;;;9.10;99.90;;;;;;5050877;28;20075;-80
2022/11/10 07:41:57;;;;;;;6.70;2.90;;;9.10;99.90;;;;;;5045757;28;20022;-80
2022/11/10 07:44:23;;;;;;;7.28;2.67;;;9.10;99.90;;;;;;5044752;28;20433;-80
2022/11/10 07:46:48;;;;;;;6.93;3.17;;;9.20;99.90;;;;;;5047244;28;20020;-80
2022/11/10 07:49:14;;;;;;;5.60;2.78;;;9.20;99.90;;;;;;5044517;28;20052;-79
2022/11/10 07:51:41;;;;;;;4.47;2.15;;;9.20;99.90;;;;;;5038138;28;20055;-82
2022/11/10 07:54:07;;;;;;;6.60;3.00;;;9.30;99.90;;;;;;5049180;28;20037;-81
2022/11/10 07:56:33;;;;;;;6.05;3.08;;;9.30;99.90;;;;;;5042484;28;21124;-80
2022/11/10 07:58:59;;;;;;;6.57;3.25;;;9.30;99.90;;;;;;5043037;28;20025;-80
2022/11/10 08:01:24;;;;;;;8.02;2.65;;;9.40;99.90;;;;;;5045456;28;20061;-80
2022/11/10 08:03:50;;;;;;;7.75;3.22;;;9.40;99.90;;;;;;5042214;28;20477;-80
2022/11/10 08:06:16;;;;;;;8.50;3.95;;;9.40;99.90;;;;;;5045012;28;20025;-81
2022/11/10 08:08:41;;;;;;;6.55;3.33;;;9.50;99.90;;;;;;5042293;28;20078;-78
2022/11/10 08:11:07;;;;;;;9.60;3.25;;;9.50;99.90;;;;;;5043449;28;20029;-80
2022/11/10 08:13:32;;;;;;;8.68;3.92;;;9.60;99.90;;;;;;5044884;28;20613;-80
2022/11/10 08:15:58;;;;;;;13.38;4.78;;;9.60;99.90;;;;;;5046700;28;20036;-79
2022/11/10 08:18:24;;;;;;;7.82;4.22;;;9.70;99.90;;;;;;5043206;28;20044;-80
2022/11/10 08:20:51;;;;;;;7.28;3.83;;;9.70;99.90;;;;;;5046550;28;20025;-79
2022/11/10 08:23:17;;;;;;;6.63;3.97;;;9.70;99.90;;;;;;5045266;28;20057;-80
2022/11/10 08:25:43;;;;;;;7.03;3.20;;;9.70;99.90;;;;;;5047447;28;20022;-80
2022/11/10 08:28:12;;;;;;;6.18;3.25;;;9.80;99.90;;;;;;5046094;28;20017;-80
2022/11/10 08:30:39;;;;;;;12.52;3.30;;;9.90;99.90;;;;;;5041941;28;20130;-79
2022/11/10 08:33:07;;;;;;;6.38;3.05;;;9.90;99.90;;;;;;5047952;28;20037;-80
2022/11/10 08:35:51;;;;;;;8.60;3.35;;;10.00;99.90;;;;;;5047320;28;20056;-80
2022/11/10 08:38:23;;;;;;;7.40;3.42;;;10.00;99.90;;;;;;5045636;28;20029;-79
2022/11/10 08:40:48;;;;;;;8.23;3.22;;;10.10;99.90;;;;;;5049187;28;20044;-79
2022/11/10 08:43:15;;;;;;;7.03;3.63;;;10.10;99.90;;;;;;5047288;28;20036;-79
2022/11/10 08:45:42;;;;;;;7.88;3.55;;;10.10;99.90;;;;;;5044290;28;20021;-79
2022/11/10 08:48:11;;;;;;;6.60;3.55;;;10.20;99.90;;;;;;5046415;28;20107;-79
2022/11/10 08:50:38;;;;;;;8.80;3.40;;;10.20;99.90;;;;;;5041029;28;20033;-79
2022/11/10 08:53:13;;;;;;;10.20;4.40;;;10.30;99.90;;;;;;5039137;28;20037;-79
2022/11/10 08:55:40;;;;;;;12.23;4.40;;;10.30;99.90;;;;;;5045186;28;20021;-81
2022/11/10 08:58:07;;;;;;;11.30;4.38;;;10.40;99.90;;;;;;5044742;28;20066;-79
2022/11/10 09:00:33;;;;;;;11.38;4.22;;;10.40;99.90;;;;;;5042017;28;20504;-79
2022/11/10 09:03:09;;;;;;;7.55;3.45;;;10.50;99.90;;;;;;5038690;28;20138;-80
2022/11/10 09:05:35;;;;;;;6.22;3.53;;;10.50;99.90;;;;;;5038281;28;20028;-80
2022/11/10 09:08:02;;;;;;;7.63;3.58;;;10.60;99.90;;;;;;5043808;28;20025;-80
2022/11/10 09:10:28;;;;;;;8.43;3.65;;;10.60;99.90;;;;;;5045108;28;20067;-80
2022/11/10 09:12:58;;;;;;;6.97;3.53;;;10.60;99.90;;;;;;5043791;28;20033;-79
2022/11/10 09:15:24;;;;;;;5.15;3.05;;;10.70;99.90;;;;;;5040544;28;20397;-79
2022/11/10 09:17:49;;;;;;;12.93;3.47;;;10.70;99.90;;;;;;5050793;28;20025;-79
2022/11/10 09:20:15;;;;;;;5.75;3.25;;;10.80;99.90;;;;;;5046192;28;20040;-79
2022/11/10 09:22:41;;;;;;;9.48;2.47;;;10.90;99.90;;;;;;5048054;28;20021;-79
2022/11/10 09:25:07;;;;;;;4.00;1.58;;;10.90;99.90;;;;;;5049511;28;20013;-81
2022/11/10 09:27:36;;;;;;;7.28;2.30;;;10.90;99.90;;;;;;5050006;28;20083;-80
2022/11/10 09:30:04;;;;;;;5.60;2.50;;;10.90;99.90;;;;;;5049056;28;20062;-80
2022/11/10 09:32:31;;;;;;;9.70;2.83;;;11.00;99.90;;;;;;5039401;28;20055;-80
2022/11/10 09:34:57;;;;;;;9.52;4.18;;;11.00;99.90;;;;;;5045666;28;20068;-80
2022/11/10 09:37:23;;;;;;;4.75;2.22;;;11.10;99.90;;;;;;5045059;28;20039;-80
2022/11/10 09:39:48;;;;;;;7.43;1.80;;;11.10;99.90;;;;;;5043301;28;20025;-81
2022/11/10 09:42:39;;;;;;;2.83;1.20;;;11.20;99.90;;;;;;5043642;28;20602;-80
2022/11/10 09:45:22;;;;;;;3.35;1.30;;;11.20;99.90;;;;;;5046265;28;20679;-80
2022/11/10 09:47:54;;;;;;;4.57;1.10;;;11.30;99.90;;;;;;5046323;28;20024;-81
2022/11/10 09:50:43;;;;;;;8.98;1.50;;;11.30;99.90;;;;;;5050488;28;20029;-81
2022/11/10 09:53:23;;;;;;;2.08;0.90;;;11.40;99.90;;;;;;5053010;28;20029;-81
2022/11/10 09:55:54;;;;;;;5.95;1.30;;;11.40;99.90;;;;;;5045302;28;20047;-81
2022/11/10 09:58:25;;;;;;;6.22;1.30;;;11.40;99.90;;;;;;5050145;28;20026;-81
2022/11/10 10:01:17;;;;;;;5.18;1.60;;;11.40;99.90;;;;;;5048749;28;20028;-81
2022/11/10 10:03:51;;;;;;;5.72;1.45;;;11.50;99.90;;;;;;5050121;28;20035;-81
2022/11/10 10:06:20;;;;;;;6.25;1.10;;;11.60;99.90;;;;;;5047229;28;20030;-81
2022/11/10 10:09:05;;;;;;;6.25;1.33;;;11.60;99.90;;;;;;5045203;28;20029;-80
2022/11/10 10:11:58;;;;;;;7.00;1.05;;;11.70;99.90;;;;;;5042307;28;20035;-81
2022/11/10 10:14:33;;;;;;;6.47;1.30;;;11.70;99.90;;;;;;5048704;28;20030;-81
2022/11/10 10:17:03;;;;;;;3.25;0.77;;;11.80;99.90;;;;;;5043900;28;20025;-81
2022/11/10 10:19:47;;;;;;;5.50;1.25;;;11.80;99.90;;;;;;5040464;28;20029;-81
2022/11/10 10:22:28;;;;;;;2.95;0.82;;;11.90;99.90;;;;;;5043418;28;20047;-81
2022/11/10 10:24:58;;;;;;;6.60;1.30;;;11.90;99.90;;;;;;5048289;28;20025;-81
2022/11/10 10:27:27;;;;;;;6.80;1.65;;;12.00;99.90;;;;;;5047462;28;20029;-80
2022/11/10 10:29:53;;;;;;;3.85;1.20;;;12.00;99.90;;;;;;5046621;28;20021;-81
2022/11/10 10:32:21;;;;;;;6.85;1.20;;;12.00;99.90;;;;;;5039857;28;20051;-81
2022/11/10 10:34:47;;;;;;;7.05;1.55;;;12.10;99.90;;;;;;5046608;28;20029;-81
2022/11/10 10:37:31;;;;;;;4.13;1.52;;;12.20;99.90;;;;;;5035778;28;20045;-82
2022/11/10 10:39:57;;;;;;;6.30;1.15;;;12.20;99.90;;;;;;5057247;28;20055;-83
2022/11/10 10:42:31;;;;;;;3.90;1.33;;;12.20;99.90;;;;;;5046886;28;20104;-82
2022/11/10 10:45:19;;;;;;;3.67;0.98;;;12.30;99.90;;;;;;5052409;28;20095;-81
2022/11/10 10:47:48;;;;;;;6.00;1.23;;;12.30;99.90;;;;;;5041678;28;20037;-82
2022/11/10 10:50:25;;;;;;;2.55;1.15;;;12.30;99.90;;;;;;5043206;28;20017;-82
2022/11/10 10:53:14;;;;;;;4.20;1.20;;;12.30;99.90;;;;;;5047227;28;20032;-82
2022/11/10 10:55:51;;;;;;;3.95;0.90;;;12.40;99.90;;;;;;5044921;28;20021;-82
2022/11/10 10:58:17;;;;;;;3.22;0.90;;;12.50;99.90;;;;;;5040966;28;20121;-82
2022/11/10 11:00:44;;;;;;;4.70;1.00;;;12.50;99.90;;;;;;5047588;28;20099;-83
2022/11/10 11:03:26;;;;;;;6.32;1.45;;;12.40;99.90;;;;;;5041557;28;20033;-83
2022/11/10 11:06:16;;;;;;;3.85;1.13;;;12.50;99.90;;;;;;5039770;28;20029;-82
2022/11/10 11:09:14;;;;;;;2.50;1.17;;;12.50;99.90;;;;;;5040287;28;20078;-81
2022/11/10 11:11:42;;;;;;;5.82;1.35;;;12.50;99.90;;;;;;5039385;28;20033;-82
2022/11/10 11:14:21;;;;;;;5.20;1.27;;;12.50;99.90;;;;;;5041312;28;20036;-82
2022/11/10 11:16:59;;;;;;;5.18;1.23;;;12.50;99.90;;;;;;5045186;28;20025;-82
2022/11/10 11:19:35;;;;;;;7.22;1.70;;;12.60;99.90;;;;;;5041624;28;20405;-83
2022/11/10 11:22:19;;;;;;;5.15;1.55;;;12.60;99.90;;;;;;5048556;28;20048;-81
2022/11/10 11:24:57;;;;;;;3.65;1.20;;;12.60;99.90;;;;;;5046544;28;20025;-81
2022/11/10 11:28:07;;;;;;;3.92;1.20;;;12.60;99.90;;;;;;5046947;28;20993;-82
2022/11/10 11:31:08;;;;;;;4.57;0.98;;;12.60;99.90;;;;;;5047461;28;20066;-82
2022/11/10 11:33:56;;;;;;;6.35;1.20;;;12.60;99.90;;;;;;5030818;28;20041;-82
2022/11/10 11:36:50;;;;;;;7.30;1.20;;;12.70;99.90;;;;;;5038270;28;20036;-82
2022/11/10 11:39:32;;;;;;;7.22;1.33;;;12.70;99.90;;;;;;5043388;28;20950;-82
2022/11/10 11:42:19;;;;;;;4.13;1.50;;;12.70;99.90;;;;;;5045580;28;20025;-82
2022/11/10 11:45:04;;;;;;;7.45;1.80;;;12.70;99.90;;;;;;5044147;28;20036;-82
2022/11/10 11:48:05;;;;;;;6.43;1.85;;;12.70;99.90;;;;;;5047393;28;20039;-82
2022/11/10 11:50:50;;;;;;;6.43;2.50;;;12.70;99.90;;;;;;5022371;28;20040;-82
2022/11/10 11:53:51;;;;;;;5.63;1.45;;;12.80;99.90;;;;;;5040348;28;20029;-82
2022/11/10 11:56:29;;;;;;;5.68;1.30;;;12.80;99.90;;;;;;5042330;28;20087;-82
2022/11/10 11:59:13;;;;;;;2.85;0.75;;;12.80;99.90;;;;;;5047997;28;20021;-82
2022/11/10 12:01:48;;;;;;;3.33;1.13;;;12.80;99.90;;;;;;5049774;28;20362;-81
2022/11/10 12:04:43;;;;;;;7.10;1.08;;;12.80;99.90;;;;;;5049737;28;20405;-82
2022/11/10 12:07:41;;;;;;;2.80;1.15;;;12.80;99.90;;;;;;5053355;28;20037;-82
2022/11/10 12:10:23;;;;;;;5.68;1.30;;;12.80;99.90;;;;;;5054377;28;20097;-85
2022/11/10 12:12:48;;;;;;;3.50;1.00;;;12.80;99.90;;;;;;5054245;28;20032;-85
2022/11/10 12:15:45;;;;;;;2.15;0.77;;;12.80;99.90;;;;;;5051884;28;20549;-84
2022/11/10 12:18:39;;;;;;;1.95;0.88;;;12.80;99.90;;;;;;5049114;28;20149;-85
2022/11/10 12:21:35;;;;;;;4.18;0.80;;;12.90;99.90;;;;;;5052693;28;20058;-85
2022/11/10 12:24:20;;;;;;;5.57;1.42;;;12.90;99.90;;;;;;5051721;28;20065;-84
2022/11/10 12:26:59;;;;;;;2.83;0.80;;;12.90;99.90;;;;;;5050840;28;20013;-84
2022/11/10 12:29:43;;;;;;;7.60;1.13;;;12.90;99.90;;;;;;5042627;28;20026;-83
2022/11/10 12:32:30;;;;;;;3.83;1.08;;;12.90;99.90;;;;;;5048539;28;20026;-82
2022/11/10 12:35:23;;;;;;;3.78;0.98;;;12.90;99.90;;;;;;5050519;28;20528;-82
2022/11/10 12:38:12;;;;;;;2.10;0.70;;;12.90;99.90;;;;;;5045430;28;20026;-82
2022/11/10 12:40:51;;;;;;;3.05;1.00;;;12.90;99.90;;;;;;5035808;28;20120;-82
2022/11/10 12:43:40;;;;;;;2.20;0.90;;;12.90;99.90;;;;;;5049628;28;20029;-84
2022/11/10 12:46:10;;;;;;;7.72;1.20;;;12.90;99.90;;;;;;5047184;28;20029;-82
2022/11/10 12:48:51;;;;;;;2.05;0.82;;;12.90;99.90;;;;;;5043057;28;20112;-82
2022/11/10 12:51:32;;;;;;;1.85;0.70;;;12.90;99.90;;;;;;5041059;28;20814;-84
2022/11/10 12:53:58;;;;;;;3.17;0.70;;;12.90;99.90;;;;;;5045048;28;20030;-83
2022/11/10 12:56:36;;;;;;;3.03;0.80;;;12.90;99.90;;;;;;5045239;28;20036;-83
2022/11/10 12:59:20;;;;;;;5.03;0.90;;;13.00;99.90;;;;;;5047282;28;20048;-81
2022/11/10 13:01:50;;;;;;;2.90;0.80;;;13.00;99.90;;;;;;5049268;28;20119;-81
2022/11/10 13:04:17;;;;;;;4.35;0.80;;;13.00;99.90;;;;;;5053285;22;25077;-77
2022/11/10 13:06:58;;;;;;;4.75;0.90;;;13.00;99.90;;;;;;5021816;28;20029;-77
2022/11/10 13:09:31;;;;;;;6.28;0.82;;;13.00;99.90;;;;;;5017892;28;20025;-76
2022/11/10 13:12:16;;;;;;;5.25;1.00;;;13.00;99.90;;;;;;5023087;28;20029;-76
2022/11/10 13:14:43;;;;;;;5.32;1.23;;;13.00;99.90;;;;;;5021351;28;20088;-76
2022/11/10 13:17:43;;;;;;;4.55;1.00;;;13.00;99.90;;;;;;5020535;28;20438;-77